Time;durP1;ratioP1;P1;durP2;ratioP2;P2;SDS_P1;SDS_P2;PMS_P1;PMS_P2;Temp;Humidity;BMP_temperature;BMP_pressure;BME280_temperature;BME280_humidity;BME280_pressure;Samples;Min_cycle;Max_cycle;Signal;HPM_P1;HPM_P2
2023/04/28 00:00:39;;;;;;;36.30;15.90;;;;;;;5.55;69.63;100769.40;110277;1276;22281;-59
2023/04/28 00:03:22;;;;;;;41.40;17.60;;;;;;;5.55;69.70;100767.60;110294;1271;22197;-60
2023/04/28 00:05:54;;;;;;;39.60;16.50;;;;;;;5.55;69.81;100769.20;110292;1265;22282;-60
2023/04/28 00:08:26;;;;;;;36.60;16.90;;;;;;;5.55;70.05;100767.90;110287;1271;22246;-59
2023/04/28 00:10:57;;;;;;;45.80;17.20;;;;;;;5.55;70.11;100770.36;110260;1270;22193;-58
2023/04/28 00:13:28;;;;;;;37.30;16.00;;;;;;;5.55;69.94;100766.09;110255;1272;22734;-59
2023/04/28 00:16:00;;;;;;;35.70;15.10;;;;;;;5.56;70.13;100761.16;110271;1269;23172;-60
2023/04/28 00:18:32;;;;;;;38.90;16.50;;;;;;;5.55;70.33;100764.89;110308;1277;22323;-59
2023/04/28 00:21:02;;;;;;;42.00;16.40;;;;;;;5.55;70.35;100763.25;107948;1271;25959;-59
2023/04/28 00:23:34;;;;;;;40.40;15.80;;;;;;;5.54;70.51;100762.23;106693;1276;25388;-58
2023/04/28 00:26:05;;;;;;;36.80;15.40;;;;;;;5.54;70.53;100756.78;106660;1265;24244;-59
2023/04/28 00:28:36;;;;;;;35.40;14.70;;;;;;;5.54;70.60;100756.70;106583;1277;24309;-58
2023/04/28 00:31:12;;;;;;;34.20;13.80;;;;;;;5.54;70.59;100752.20;106661;1272;22654;-57
2023/04/28 00:33:43;;;;;;;35.10;13.60;;;;;;;5.53;70.71;100755.22;110263;1270;22181;-58
2023/04/28 00:36:14;;;;;;;30.90;13.50;;;;;;;5.52;70.75;100755.48;110262;1277;22255;-59
2023/04/28 00:38:45;;;;;;;30.50;12.90;;;;;;;5.51;70.70;100753.30;110258;1266;22184;-60
2023/04/28 00:41:16;;;;;;;33.90;13.10;;;;;;;5.50;70.80;100752.14;110283;1268;22348;-60
2023/04/28 00:43:48;;;;;;;51.00;22.10;;;;;;;5.49;70.83;100755.16;110240;1265;22227;-59
2023/04/28 00:46:24;;;;;;;45.80;18.60;;;;;;;5.47;70.86;100752.60;110209;1271;22227;-61
2023/04/28 00:48:55;;;;;;;42.70;18.50;;;;;;;5.45;70.89;100751.46;110248;1262;22425;-60
2023/04/28 00:51:27;;;;;;;48.20;19.80;;;;;;;5.42;71.01;100748.45;110275;1277;23155;-61
2023/04/28 00:53:58;;;;;;;49.60;19.90;;;;;;;5.40;71.06;100747.64;110240;1271;22278;-59
2023/04/28 00:56:30;;;;;;;47.30;20.80;;;;;;;5.40;71.11;100746.60;110262;1270;22172;-58
2023/04/28 00:59:01;;;;;;;41.80;19.30;;;;;;;5.41;71.28;100744.75;110182;1270;22400;-58
2023/04/28 01:01:34;;;;;;;40.50;17.30;;;;;;;5.40;71.31;100741.39;110282;1273;22892;-60
2023/04/28 01:04:05;;;;;;;42.40;17.50;;;;;;;5.38;71.50;100737.77;110245;1270;22150;-57
2023/04/28 01:06:38;;;;;;;34.50;14.30;;;;;;;5.36;71.37;100738.05;110254;1271;22243;-59
2023/04/28 01:09:09;;;;;;;36.80;13.70;;;;;;;5.36;71.53;100734.34;110277;1273;22194;-60
2023/04/28 01:11:40;;;;;;;36.10;14.70;;;;;;;5.36;71.61;100729.36;110217;1267;23001;-60
2023/04/28 01:14:11;;;;;;;31.30;12.80;;;;;;;5.36;71.85;100729.27;110255;1265;22351;-60
2023/04/28 01:16:42;;;;;;;34.40;12.50;;;;;;;5.35;72.03;100725.59;110215;1272;22213;-59
2023/04/28 01:19:23;;;;;;;32.00;12.90;;;;;;;5.35;72.15;100725.84;110228;1265;22135;-58
2023/04/28 01:21:52;;;;;;;;;;;;;;;5.33;72.24;100727.05;110290;1269;22430;-58
2023/04/28 01:24:23;;;;;;;33.70;12.30;;;;;;;5.31;72.43;100727.18;110279;1271;22519;-60
2023/04/28 01:26:54;;;;;;;30.30;12.30;;;;;;;5.31;72.50;100724.34;110244;1271;22920;-59
2023/04/28 01:29:25;;;;;;;29.40;11.00;;;;;;;5.32;72.58;100721.54;110235;1267;22144;-59
2023/04/28 01:31:56;;;;;;;27.20;11.60;;;;;;;5.31;72.71;100720.15;110268;1265;22158;-59
2023/04/28 01:34:27;;;;;;;25.80;10.80;;;;;;;5.30;72.67;100717.98;110241;1263;22197;-59
2023/04/28 01:36:58;;;;;;;35.70;12.00;;;;;;;5.29;72.67;100715.52;110240;1269;22441;-59
2023/04/28 01:39:29;;;;;;;27.20;11.00;;;;;;;5.29;72.85;100714.12;110255;1271;22899;-58
2023/04/28 01:42:01;;;;;;;28.90;11.30;;;;;;;5.28;72.75;100714.67;110249;1273;22958;-61
2023/04/28 01:44:31;;;;;;;35.10;12.70;;;;;;;5.29;72.91;100709.60;110190;1272;22326;-59
2023/04/28 01:47:02;;;;;;;36.20;13.00;;;;;;;5.29;73.08;100708.66;110182;1274;23504;-60
2023/04/28 01:49:33;;;;;;;38.70;14.60;;;;;;;5.27;73.17;100703.79;110201;1267;23313;-56
2023/04/28 01:52:05;;;;;;;35.80;13.10;;;;;;;5.28;73.12;100706.95;110196;1270;22189;-60
2023/04/28 01:54:36;;;;;;;33.70;13.00;;;;;;;5.29;73.03;100705.48;110269;1271;22870;-58
2023/04/28 01:57:07;;;;;;;32.10;11.50;;;;;;;5.30;73.10;100705.45;107468;1265;22553;-58
2023/04/28 01:59:38;;;;;;;27.30;11.20;;;;;;;5.31;73.20;100705.92;106588;1274;24322;-59
2023/04/28 02:02:09;;;;;;;32.70;11.60;;;;;;;5.30;73.23;100708.06;106618;1265;22543;-54
2023/04/28 02:04:40;;;;;;;30.50;12.00;;;;;;;5.29;73.39;100707.71;106609;1277;22527;-56
2023/04/28 02:07:11;;;;;;;32.40;11.60;;;;;;;5.29;73.37;100704.39;110230;1270;22143;-59
2023/04/28 02:09:42;;;;;;;29.90;11.20;;;;;;;5.28;73.61;100704.64;110261;1270;22304;-58
2023/04/28 02:12:13;;;;;;;31.20;11.10;;;;;;;5.27;73.80;100702.07;110257;1274;22193;-58
2023/04/28 02:14:44;;;;;;;33.50;11.70;;;;;;;5.25;73.85;100701.16;110232;1271;22362;-58
2023/04/28 02:17:15;;;;;;;29.20;11.40;;;;;;;5.25;73.79;100701.08;110250;1266;22142;-59
2023/04/28 02:19:46;;;;;;;27.80;11.60;;;;;;;5.24;73.68;100699.85;110267;1271;22197;-58
2023/04/28 02:22:17;;;;;;;30.60;11.20;;;;;;;5.24;73.66;100698.88;110260;1273;22127;-58
2023/04/28 02:24:48;;;;;;;29.70;12.00;;;;;;;5.25;73.79;100697.91;110251;1269;22558;-60
2023/04/28 02:27:19;;;;;;;27.90;11.90;;;;;;;5.25;73.94;100698.78;110224;1277;22651;-59
2023/04/28 02:29:50;;;;;;;28.80;11.90;;;;;;;5.26;73.94;100699.80;110258;1273;22391;-58
2023/04/28 02:32:21;;;;;;;30.70;12.40;;;;;;;5.26;73.97;100700.52;110258;1273;22170;-59
2023/04/28 02:34:55;;;;;;;29.60;12.40;;;;;;;5.27;73.93;100698.42;110209;1270;22220;-60
2023/04/28 02:37:26;;;;;;;32.30;11.50;;;;;;;5.28;73.72;100694.59;110220;1266;22224;-55
2023/04/28 02:39:57;;;;;;;27.50;10.30;;;;;;;5.30;73.64;100696.29;110235;1271;22349;-58
2023/04/28 02:42:28;;;;;;;27.60;11.60;;;;;;;5.30;73.46;100694.15;110265;1277;22144;-58
2023/04/28 02:44:59;;;;;;;25.90;9.70;;;;;;;5.31;73.51;100692.55;110329;1265;22163;-59
2023/04/28 02:47:29;;;;;;;34.50;12.40;;;;;;;5.31;73.67;100691.35;110198;1273;22162;-60
2023/04/28 02:50:00;;;;;;;30.20;10.90;;;;;;;5.32;73.64;100687.77;110224;1273;22212;-58
2023/04/28 02:52:31;;;;;;;32.00;10.70;;;;;;;5.33;73.52;100691.48;110238;1266;22321;-58
2023/04/28 02:55:03;;;;;;;30.30;10.70;;;;;;;5.34;73.45;100686.00;110245;1264;22142;-59
2023/04/28 02:57:34;;;;;;;25.80;10.10;;;;;;;5.35;73.35;100686.20;110259;1277;22510;-60
2023/04/28 03:00:06;;;;;;;27.40;10.30;;;;;;;5.36;73.28;100683.95;110242;1271;22146;-58
2023/04/28 03:02:37;;;;;;;29.30;10.90;;;;;;;5.37;73.39;100678.95;110239;1270;23298;-59
2023/04/28 03:05:09;;;;;;;23.50;9.20;;;;;;;5.38;73.31;100673.55;110262;1271;22224;-59
2023/04/28 03:07:40;;;;;;;28.10;10.20;;;;;;;5.38;73.34;100681.21;110253;1272;22147;-58
2023/04/28 03:10:12;;;;;;;26.00;10.10;;;;;;;5.39;73.26;100678.36;110249;1271;22220;-59
2023/04/28 03:12:42;;;;;;;23.00;8.90;;;;;;;5.39;73.36;100677.97;110268;1270;22846;-59
2023/04/28 03:15:14;;;;;;;26.00;9.70;;;;;;;5.37;73.36;100680.30;110240;1277;22269;-58
2023/04/28 03:17:45;;;;;;;26.50;11.50;;;;;;;5.36;73.43;100678.81;110233;1266;22185;-61
2023/04/28 03:20:16;;;;;;;26.30;10.40;;;;;;;5.35;73.61;100681.85;110246;1274;22607;-60
2023/04/28 03:22:47;;;;;;;23.70;9.60;;;;;;;5.36;73.60;100682.92;110232;1262;22947;-61
2023/04/28 03:25:18;;;;;;;29.50;11.40;;;;;;;5.37;73.55;100680.52;110255;1265;22259;-60
2023/04/28 03:27:49;;;;;;;27.80;11.80;;;;;;;5.38;73.73;100682.11;110231;1262;23189;-62
2023/04/28 03:30:20;;;;;;;30.20;11.00;;;;;;;5.37;73.67;100679.58;110307;1265;22134;-59
2023/04/28 03:32:50;;;;;;;28.50;11.30;;;;;;;5.37;73.70;100680.83;110236;1265;22196;-59
2023/04/28 03:35:22;;;;;;;27.00;10.60;;;;;;;5.37;73.71;100681.72;110247;1271;22207;-60
2023/04/28 03:37:53;;;;;;;29.00;12.40;;;;;;;5.37;73.65;100680.14;108625;1268;22527;-61
2023/04/28 03:40:24;;;;;;;26.40;11.80;;;;;;;5.36;73.64;100680.88;106478;1270;24269;-62
2023/04/28 03:42:55;;;;;;;31.10;12.10;;;;;;;5.36;73.66;100680.09;110199;1270;22895;-60
2023/04/28 03:45:26;;;;;;;28.00;11.70;;;;;;;5.34;73.52;100680.46;110267;1270;22267;-61
2023/04/28 03:47:57;;;;;;;25.10;11.20;;;;;;;5.33;73.55;100681.36;110237;1268;22144;-60
2023/04/28 03:50:28;;;;;;;30.20;12.10;;;;;;;5.31;73.66;100686.30;110282;1265;22173;-61
2023/04/28 03:52:59;;;;;;;34.30;12.60;;;;;;;5.29;73.62;100686.73;110239;1266;22164;-60
2023/04/28 03:55:30;;;;;;;33.00;12.80;;;;;;;5.27;73.71;100688.07;110315;1265;22276;-61
2023/04/28 03:58:00;;;;;;;37.00;14.40;;;;;;;5.24;73.69;100686.54;110211;1265;22189;-59
2023/04/28 04:00:31;;;;;;;38.30;15.00;;;;;;;5.23;73.65;100686.56;110248;1277;22323;-59
2023/04/28 04:03:02;;;;;;;34.10;14.20;;;;;;;5.24;73.65;100682.60;110225;1262;22383;-60
2023/04/28 04:05:33;;;;;;;31.40;12.90;;;;;;;5.26;73.79;100682.63;110229;1273;22361;-56
2023/04/28 04:08:05;;;;;;;30.70;14.10;;;;;;;5.26;73.80;100684.13;110250;1263;23046;-56
2023/04/28 04:10:36;;;;;;;34.80;15.20;;;;;;;5.27;73.96;100675.65;107270;1275;26543;-56
2023/04/28 04:13:07;;;;;;;37.80;14.20;;;;;;;5.28;73.89;100670.08;106532;1269;22538;-58
2023/04/28 04:15:38;;;;;;;39.10;13.90;;;;;;;5.30;73.92;100667.81;106510;1274;23741;-55
2023/04/28 04:18:09;;;;;;;34.80;15.20;;;;;;;5.32;73.98;100664.29;106537;1276;22557;-58
2023/04/28 04:20:40;;;;;;;32.50;14.10;;;;;;;5.34;73.94;100666.44;110227;1272;23039;-58
2023/04/28 04:23:11;;;;;;;31.80;13.90;;;;;;;5.38;74.32;100670.48;110220;1271;22162;-60
2023/04/28 04:25:42;;;;;;;33.10;14.80;;;;;;;5.41;74.25;100672.54;110216;1266;22282;-56
2023/04/28 04:28:13;;;;;;;34.30;15.20;;;;;;;5.44;74.31;100669.20;110205;1266;22131;-60
2023/04/28 04:30:44;;;;;;;42.20;15.10;;;;;;;5.48;74.42;100666.41;110216;1269;22182;-57
2023/04/28 04:33:15;;;;;;;35.20;15.00;;;;;;;5.52;74.35;100666.80;110247;1277;22227;-59
2023/04/28 04:35:46;;;;;;;32.50;13.80;;;;;;;5.56;74.19;100665.19;110237;1272;22362;-59
2023/04/28 04:38:40;;;;;;;33.50;13.80;;;;;;;5.61;74.13;100673.36;110234;1270;23075;-57
2023/04/28 04:41:20;;;;;;;39.70;14.90;;;;;;;5.66;74.07;100672.04;108082;1273;25428;-57
2023/04/28 04:43:51;;;;;;;37.50;14.90;;;;;;;5.69;73.93;100672.73;106527;1263;22591;-57
2023/04/28 04:46:23;;;;;;;31.70;14.90;;;;;;;5.73;73.91;100672.72;109480;1259;22578;-56
2023/04/28 04:48:54;;;;;;;38.40;16.40;;;;;;;5.74;73.81;100672.06;106510;1271;23924;-57
2023/04/28 04:51:26;;;;;;;35.40;15.40;;;;;;;5.76;73.73;100671.16;110211;1277;23000;-59
2023/04/28 04:53:57;;;;;;;32.30;15.20;;;;;;;5.78;73.88;100669.98;110209;1273;22241;-60
2023/04/28 04:56:28;;;;;;;41.60;15.30;;;;;;;5.81;73.91;100671.81;110233;1268;23521;-58
2023/04/28 04:58:59;;;;;;;35.00;17.60;;;;;;;5.85;73.95;100666.27;110207;1269;22191;-58
2023/04/28 05:01:30;;;;;;;42.90;18.20;;;;;;;5.90;74.05;100664.33;110203;1271;22465;-59
2023/04/28 05:04:01;;;;;;;36.70;17.20;;;;;;;5.93;73.77;100662.27;110247;1267;22372;-58
2023/04/28 05:06:32;;;;;;;35.80;17.10;;;;;;;5.96;73.64;100665.12;110268;1277;22179;-60
2023/04/28 05:09:03;;;;;;;41.80;19.00;;;;;;;6.00;73.78;100667.05;110269;1274;22340;-57
2023/04/28 05:11:34;;;;;;;45.20;17.80;;;;;;;6.05;73.61;100666.20;110226;1273;22331;-57
2023/04/28 05:14:05;;;;;;;40.90;17.90;;;;;;;6.07;73.44;100664.48;110268;1274;22967;-57
2023/04/28 05:16:36;;;;;;;41.20;18.70;;;;;;;6.08;73.27;100665.64;110230;1273;22545;-58
2023/04/28 05:19:07;;;;;;;44.10;19.10;;;;;;;6.12;73.36;100662.53;110219;1269;22208;-58
2023/04/28 05:21:37;;;;;;;39.10;17.10;;;;;;;6.17;73.37;100664.61;110240;1274;22335;-54
2023/04/28 05:24:09;;;;;;;34.10;13.50;;;;;;;6.19;72.98;100664.61;110231;1273;22249;-59
2023/04/28 05:26:40;;;;;;;32.60;14.30;;;;;;;6.21;72.94;100660.38;110232;1266;22318;-55
2023/04/28 05:29:10;;;;;;;35.00;15.10;;;;;;;6.25;72.96;100658.98;110226;1270;22916;-56
2023/04/28 05:31:41;;;;;;;33.20;16.10;;;;;;;6.30;73.11;100657.65;108630;1264;22526;-55
2023/04/28 05:34:13;;;;;;;40.80;16.10;;;;;;;6.36;72.92;100658.74;106617;1274;22731;-58
2023/04/28 05:36:45;;;;;;;33.20;15.70;;;;;;;6.41;72.75;100660.26;110251;1270;22351;-60
2023/04/28 05:39:16;;;;;;;36.30;16.40;;;;;;;6.45;72.78;100660.61;110284;1270;23069;-56
2023/04/28 05:41:47;;;;;;;33.80;14.70;;;;;;;6.50;72.72;100658.23;110215;1273;23088;-57
2023/04/28 05:44:18;;;;;;;34.40;15.80;;;;;;;6.55;72.39;100660.65;110208;1274;22317;-56
2023/04/28 05:46:49;;;;;;;31.10;13.30;;;;;;;6.59;72.27;100663.31;110261;1266;22337;-55
2023/04/28 05:49:20;;;;;;;35.50;15.20;;;;;;;6.61;72.16;100657.27;110233;1273;22904;-58
2023/04/28 05:51:51;;;;;;;33.90;13.50;;;;;;;6.67;72.35;100654.90;110253;1270;23351;-58
2023/04/28 05:54:22;;;;;;;33.60;15.20;;;;;;;6.72;72.19;100653.16;110260;1277;22191;-58
2023/04/28 05:56:53;;;;;;;38.60;15.90;;;;;;;6.78;72.45;100650.27;110250;1266;22359;-58
2023/04/28 05:59:24;;;;;;;31.40;14.50;;;;;;;6.84;72.37;100649.63;110264;1262;22195;-57
2023/04/28 06:01:55;;;;;;;35.20;16.50;;;;;;;6.91;72.54;100649.92;110227;1271;23022;-58
2023/04/28 06:04:26;;;;;;;35.40;17.70;;;;;;;7.00;72.54;100644.48;110288;1270;22371;-57
2023/04/28 06:06:57;;;;;;;32.60;16.50;;;;;;;7.07;72.51;100642.98;110232;1270;22182;-59
2023/04/28 06:09:28;;;;;;;33.90;16.60;;;;;;;7.14;72.68;100643.57;110235;1277;22234;-59
2023/04/28 06:11:59;;;;;;;39.20;17.70;;;;;;;7.20;72.54;100643.98;110295;1271;22962;-60
2023/04/28 06:14:31;;;;;;;39.30;16.60;;;;;;;7.27;72.26;100639.73;110237;1277;22322;-58
2023/04/28 06:17:02;;;;;;;38.60;17.00;;;;;;;7.32;71.83;100636.36;110252;1274;22273;-57
2023/04/28 06:19:33;;;;;;;33.20;15.90;;;;;;;7.38;71.70;100637.69;110226;1274;22204;-59
2023/04/28 06:22:04;;;;;;;34.50;16.30;;;;;;;7.43;71.43;100635.88;110204;1268;22241;-61
2023/04/28 06:24:35;;;;;;;33.40;15.80;;;;;;;7.48;71.43;100635.13;110248;1277;22829;-57
2023/04/28 06:27:07;;;;;;;36.80;16.00;;;;;;;7.55;71.32;100636.80;110254;1271;22237;-58
2023/04/28 06:29:38;;;;;;;37.50;15.00;;;;;;;7.64;71.30;100631.91;110236;1277;22291;-58
2023/04/28 06:32:09;;;;;;;38.20;16.20;;;;;;;7.72;71.13;100629.45;110217;1270;22133;-58
2023/04/28 06:34:40;;;;;;;39.00;15.40;;;;;;;7.81;70.79;100630.02;110228;1276;22297;-58
2023/04/28 06:37:11;;;;;;;41.10;16.60;;;;;;;7.89;70.82;100627.34;110261;1272;22364;-60
2023/04/28 06:39:42;;;;;;;39.10;16.50;;;;;;;7.98;70.89;100628.92;110298;1270;22235;-60
2023/04/28 06:42:15;;;;;;;41.50;17.90;;;;;;;8.06;70.73;100626.16;110248;1277;22262;-58
2023/04/28 06:44:46;;;;;;;36.30;17.30;;;;;;;8.14;70.51;100624.53;110256;1272;22172;-59
2023/04/28 06:47:17;;;;;;;30.30;13.90;;;;;;;8.22;70.20;100626.48;110230;1272;22120;-59
2023/04/28 06:49:49;;;;;;;32.20;14.70;;;;;;;8.29;69.96;100622.96;110228;1272;22214;-60
2023/04/28 06:52:21;;;;;;;36.50;15.30;;;;;;;8.39;70.12;100623.79;110240;1271;22226;-59
2023/04/28 06:54:51;;;;;;;29.10;14.40;;;;;;;8.50;69.90;100622.49;110259;1270;22273;-58
2023/04/28 06:57:23;;;;;;;35.90;16.10;;;;;;;8.62;69.90;100623.14;110299;1277;22188;-59
2023/04/28 06:59:54;;;;;;;36.40;16.50;;;;;;;8.75;70.03;100628.73;110241;1276;22151;-58
2023/04/28 07:02:25;;;;;;;35.90;15.50;;;;;;;8.87;69.89;100623.64;110273;1271;22166;-58
2023/04/28 07:04:56;;;;;;;37.00;16.30;;;;;;;9.00;69.69;100618.32;109347;1272;22554;-57
2023/04/28 07:07:26;;;;;;;32.70;15.90;;;;;;;9.10;69.41;100614.45;106694;1275;25365;-58
2023/04/28 07:09:59;;;;;;;35.40;15.90;;;;;;;9.20;69.11;100612.52;106593;1269;25864;-58
2023/04/28 07:12:30;;;;;;;39.10;16.50;;;;;;;9.28;68.87;100610.75;110241;1277;22284;-58
2023/04/28 07:15:01;;;;;;;32.70;13.60;;;;;;;9.37;68.57;100603.77;110256;1271;22179;-59
2023/04/28 07:17:32;;;;;;;34.00;13.70;;;;;;;9.47;68.39;100602.02;110270;1271;22362;-58
2023/04/28 07:20:04;;;;;;;34.10;14.10;;;;;;;9.54;67.95;100598.98;110268;1270;22150;-60
2023/04/28 07:22:34;;;;;;;29.40;11.30;;;;;;;9.61;67.83;100593.11;107050;1271;27517;-57
2023/04/28 07:25:07;;;;;;;25.90;11.50;;;;;;;9.69;67.43;100590.45;106702;1276;25828;-58
2023/04/28 07:27:38;;;;;;;30.80;11.50;;;;;;;9.77;67.53;100589.37;110253;1277;22193;-58
2023/04/28 07:30:09;;;;;;;28.50;12.00;;;;;;;9.86;67.31;100584.98;110253;1276;22158;-59
2023/04/28 07:32:40;;;;;;;23.30;10.60;;;;;;;9.95;67.28;100581.67;110216;1266;22186;-59
2023/04/28 07:35:11;;;;;;;25.30;10.80;;;;;;;10.03;67.02;100585.05;110235;1271;22222;-58
2023/04/28 07:37:42;;;;;;;27.10;11.10;;;;;;;10.09;66.69;100580.20;110272;1271;22995;-58
2023/04/28 07:40:13;;;;;;;29.60;11.10;;;;;;;10.16;66.27;100579.14;110255;1274;22234;-60
2023/04/28 07:42:44;;;;;;;24.80;11.30;;;;;;;10.23;66.08;100573.94;110255;1264;22850;-58
2023/04/28 07:45:16;;;;;;;23.80;10.00;;;;;;;10.34;65.63;100571.33;110267;1276;22240;-58
2023/04/28 07:47:47;;;;;;;30.90;10.50;;;;;;;10.47;65.22;100572.50;110236;1274;22280;-60
2023/04/28 07:50:18;;;;;;;28.50;10.80;;;;;;;10.60;65.01;100569.26;110228;1273;22187;-59
2023/04/28 07:52:48;;;;;;;27.80;9.30;;;;;;;10.74;65.02;100571.06;110241;1275;22159;-59
2023/04/28 07:55:19;;;;;;;28.30;10.70;;;;;;;10.84;64.44;100564.75;110258;1270;22233;-60
2023/04/28 07:57:50;;;;;;;23.60;10.10;;;;;;;10.91;64.22;100562.98;110266;1269;22832;-58
2023/04/28 08:00:21;;;;;;;28.20;10.80;;;;;;;11.00;64.43;100562.48;110261;1277;22866;-57
2023/04/28 08:02:52;;;;;;;28.60;10.90;;;;;;;11.12;63.57;100561.58;110242;1270;22264;-57
2023/04/28 08:05:23;;;;;;;25.30;10.70;;;;;;;11.20;63.58;100559.19;110258;1273;22147;-58
2023/04/28 08:07:54;;;;;;;29.00;11.90;;;;;;;11.27;63.25;100551.58;110342;1270;22161;-60
2023/04/28 08:10:25;;;;;;;27.60;11.00;;;;;;;11.34;63.53;100550.55;110283;1270;22330;-57
2023/04/28 08:12:56;;;;;;;27.00;9.80;;;;;;;11.43;62.83;100554.59;110269;1270;22341;-59
2023/04/28 08:15:27;;;;;;;25.10;10.00;;;;;;;11.53;62.99;100553.13;110291;1277;23276;-57
2023/04/28 08:17:58;;;;;;;25.60;10.70;;;;;;;11.64;62.62;100552.60;110267;1270;22158;-59
2023/04/28 08:20:31;;;;;;;26.30;9.50;;;;;;;11.73;62.05;100549.98;110261;1270;22182;-59
2023/04/28 08:23:02;;;;;;;26.40;9.10;;;;;;;11.81;61.84;100545.58;110242;1270;22143;-57
2023/04/28 08:25:33;;;;;;;20.40;6.60;;;;;;;11.92;61.58;100541.21;110263;1273;22244;-58
2023/04/28 08:28:05;;;;;;;19.00;7.00;;;;;;;12.03;61.01;100537.33;110242;1276;22302;-58
2023/04/28 08:30:37;;;;;;;18.50;6.10;;;;;;;12.18;60.19;100535.30;110266;1277;23340;-59
2023/04/28 08:33:08;;;;;;;16.30;4.60;;;;;;;12.32;59.55;100533.29;110293;1269;22178;-59
2023/04/28 08:35:39;;;;;;;18.20;5.40;;;;;;;12.46;58.70;100531.39;110279;1271;22913;-58
2023/04/28 08:38:12;;;;;;;17.60;5.70;;;;;;;12.60;58.65;100530.59;110249;1270;22122;-57
2023/04/28 08:40:43;;;;;;;18.10;5.60;;;;;;;12.73;58.39;100529.70;110285;1268;23015;-57
2023/04/28 08:43:14;;;;;;;17.20;4.70;;;;;;;12.84;57.65;100531.20;110257;1267;22170;-58
2023/04/28 08:45:45;;;;;;;15.20;4.80;;;;;;;12.94;56.92;100526.04;110243;1269;22417;-58
2023/04/28 08:48:20;;;;;;;14.90;4.60;;;;;;;13.07;56.33;100519.91;110292;1277;22259;-57
2023/04/28 08:50:53;;;;;;;12.10;3.50;;;;;;;13.13;55.51;100515.02;110250;1276;22158;-60
2023/04/28 08:53:26;;;;;;;14.60;4.10;;;;;;;13.23;55.33;100517.95;110251;1273;22160;-58
2023/04/28 08:55:58;;;;;;;13.60;4.00;;;;;;;13.35;55.06;100515.30;110241;1270;22287;-61
2023/04/28 08:58:29;;;;;;;17.00;4.70;;;;;;;13.44;55.47;100511.83;108849;1266;26675;-57
2023/04/28 09:01:01;;;;;;;16.40;4.90;;;;;;;13.49;54.02;100505.88;106732;1270;22577;-58
2023/04/28 09:03:32;;;;;;;15.80;4.30;;;;;;;13.53;54.13;100503.11;110282;1276;22186;-58
2023/04/28 09:06:03;;;;;;;18.80;4.40;;;;;;;13.61;54.15;100503.52;110281;1270;22188;-61
2023/04/28 09:08:34;;;;;;;17.10;4.70;;;;;;;13.66;53.62;100502.60;110277;1270;22310;-59
2023/04/28 09:11:09;;;;;;;16.10;4.70;;;;;;;13.72;53.40;100496.23;110268;1272;22856;-60
2023/04/28 09:13:41;;;;;;;16.70;4.10;;;;;;;13.81;53.40;100495.36;110245;1270;22176;-59
2023/04/28 09:16:12;;;;;;;15.50;4.50;;;;;;;13.89;52.43;100493.13;110292;1273;23017;-58
2023/04/28 09:19:06;;;;;;;15.20;4.50;;;;;;;13.97;52.19;100491.67;110284;1270;22467;-59
2023/04/28 09:21:48;;;;;;;13.80;4.30;;;;;;;14.02;52.00;100480.09;110263;1277;23046;-57
2023/04/28 09:24:30;;;;;;;15.70;4.90;;;;;;;14.07;51.75;100480.80;110270;1277;22813;-59
2023/04/28 09:27:03;;;;;;;16.00;4.70;;;;;;;14.16;51.27;100479.29;110305;1270;22159;-59
2023/04/28 09:29:34;;;;;;;16.60;3.80;;;;;;;14.15;51.30;100474.52;110317;1262;22322;-60
2023/04/28 09:32:18;;;;;;;10.70;2.70;;;;;;;14.20;51.13;100470.13;110253;1270;22196;-58
2023/04/28 09:34:51;;;;;;;13.80;4.10;;;;;;;14.32;50.80;100467.74;110279;1271;22222;-58
2023/04/28 09:37:23;;;;;;;13.20;3.70;;;;;;;14.40;50.15;100465.52;110253;1270;22765;-59
2023/04/28 09:39:55;;;;;;;17.70;3.80;;;;;;;14.50;49.87;100461.74;110254;1270;22138;-58
2023/04/28 09:42:36;;;;;;;14.10;4.00;;;;;;;14.56;50.00;100460.66;110274;1277;22150;-59
2023/04/28 09:45:09;;;;;;;13.40;3.80;;;;;;;14.59;49.70;100450.64;110272;1264;22185;-60
2023/04/28 09:47:42;;;;;;;14.90;3.30;;;;;;;14.61;49.87;100446.34;110255;1266;22214;-59
2023/04/28 09:50:15;;;;;;;17.10;3.80;;;;;;;14.67;49.50;100441.52;110244;1266;22206;-58
2023/04/28 09:52:56;;;;;;;14.40;4.80;;;;;;;14.72;49.09;100440.38;110228;1272;22185;-60
2023/04/28 09:55:30;;;;;;;16.20;4.20;;;;;;;14.80;49.07;100437.76;110268;1270;22301;-60
2023/04/28 09:58:04;;;;;;;13.80;4.10;;;;;;;14.87;48.99;100436.88;110282;1269;22167;-60
2023/04/28 10:00:39;;;;;;;11.70;3.50;;;;;;;14.94;48.39;100431.08;110250;1270;22196;-58
2023/04/28 10:03:11;;;;;;;12.70;3.90;;;;;;;14.99;48.42;100425.06;110285;1260;22171;-58
2023/04/28 10:05:43;;;;;;;8.70;2.90;;;;;;;15.05;48.66;100427.59;110280;1270;22186;-59
2023/04/28 10:08:14;;;;;;;14.10;3.00;;;;;;;15.15;48.11;100421.86;110270;1262;22173;-59
2023/04/28 10:10:47;;;;;;;11.40;3.10;;;;;;;15.21;48.25;100421.11;110244;1270;22282;-61
2023/04/28 10:13:20;;;;;;;14.30;3.80;;;;;;;15.28;48.03;100417.65;110276;1270;22218;-60
2023/04/28 10:15:53;;;;;;;14.80;4.20;;;;;;;15.33;48.06;100413.93;110279;1269;22287;-58
2023/04/28 10:18:25;;;;;;;13.40;3.80;;;;;;;15.39;47.75;100407.70;110290;1275;22164;-59
2023/04/28 10:21:01;;;;;;;15.00;3.50;;;;;;;15.48;47.13;100404.33;110285;1271;22221;-60
2023/04/28 10:23:59;;;;;;;10.60;3.00;;;;;;;15.58;47.52;100399.02;110273;1270;22839;-59
2023/04/28 10:26:58;;;;;;;12.20;3.20;;;;;;;15.68;47.49;100400.58;109890;1275;22594;-59
2023/04/28 10:29:30;;;;;;;11.70;2.80;;;;;;;15.78;47.10;100390.59;109878;1276;22221;-59
2023/04/28 10:32:27;;;;;;;11.50;2.20;;;;;;;15.81;47.16;100385.68;109891;1278;22262;-61
2023/04/28 10:35:29;;;;;;;11.90;2.70;;;;;;;15.89;46.97;100385.67;109884;1275;22188;-57
2023/04/28 10:38:07;;;;;;;12.40;2.30;;;;;;;15.97;46.68;100378.86;109910;1267;22262;-60
2023/04/28 10:40:39;;;;;;;12.80;2.60;;;;;;;16.02;46.83;100373.59;109918;1268;22446;-60
2023/04/28 10:43:11;;;;;;;11.40;2.90;;;;;;;16.11;46.64;100373.57;109911;1277;22482;-59
2023/04/28 10:46:10;;;;;;;12.50;3.10;;;;;;;16.17;46.78;100370.80;106344;1275;25073;-61
2023/04/28 10:49:00;;;;;;;21.00;3.70;;;;;;;16.24;46.54;100369.66;109912;1279;22275;-61
2023/04/28 10:51:32;;;;;;;14.40;3.60;;;;;;;16.35;46.59;100364.46;109878;1275;22402;-58
2023/04/28 10:54:27;;;;;;;10.60;3.00;;;;;;;16.39;45.85;100358.26;109885;1279;23127;-58
2023/04/28 10:57:24;;;;;;;15.60;3.10;;;;;;;16.41;45.95;100354.92;109904;1276;24043;-60
2023/04/28 11:00:30;;;;;;;10.00;2.50;;;;;;;16.41;45.76;100354.27;109884;1274;22359;-59
2023/04/28 11:03:01;;;;;;;7.60;1.90;;;;;;;16.45;45.50;100359.94;109933;1277;22950;-58
2023/04/28 11:05:33;;;;;;;11.10;2.60;;;;;;;16.48;45.21;100358.03;110270;1267;22324;-61
2023/04/28 11:08:33;;;;;;;13.20;2.60;;;;;;;16.55;45.44;100352.96;110230;1270;23053;-59
2023/04/28 11:11:18;;;;;;;11.10;2.50;;;;;;;16.63;45.45;100352.23;110238;1269;22181;-61
2023/04/28 11:13:49;;;;;;;11.50;3.30;;;;;;;16.70;45.40;100354.75;110293;1267;22208;-59
2023/04/28 11:16:29;;;;;;;12.20;2.40;;;;;;;16.77;45.03;100344.77;110306;1270;22211;-60
2023/04/28 11:19:18;;;;;;;8.20;1.90;;;;;;;16.79;44.84;100342.05;110279;1269;22193;-57
2023/04/28 11:21:50;;;;;;;10.50;2.30;;;;;;;16.82;44.78;100342.29;110290;1270;22434;-59
2023/04/28 11:24:24;;;;;;;9.60;2.10;;;;;;;16.84;44.71;100343.30;106144;1277;5444001;-58
2023/04/28 11:26:55;;;;;;;16.50;2.80;;;;;;;16.88;44.68;100340.41;110245;1270;22296;-61
2023/04/28 11:29:34;;;;;;;15.20;2.40;;;;;;;16.96;44.40;100333.95;110283;1262;22206;-58
2023/04/28 11:32:06;;;;;;;8.50;1.90;;;;;;;17.06;44.40;100332.73;110257;1270;22202;-58
2023/04/28 11:34:38;;;;;;;13.00;2.30;;;;;;;17.16;44.07;100330.77;110265;1270;22186;-59